Time;durP1;ratioP1;P1;durP2;ratioP2;P2;SDS_P1;SDS_P2;PMS_P1;PMS_P2;Temp;Humidity;BMP_temperature;BMP_pressure;BME280_temperature;BME280_humidity;BME280_pressure;Samples;Min_cycle;Max_cycle;Signal;HPM_P1;HPM_P2
2022/03/12 00:00:43;;;;;;;10.45;4.85;;;-3.60;99.90;;;;;;5087607;28;20687;-71
2022/03/12 00:03:10;;;;;;;8.05;4.80;;;-3.60;99.90;;;;;;5088911;28;20157;-71
2022/03/12 00:05:38;;;;;;;11.02;6.22;;;-3.70;99.90;;;;;;5087416;28;20172;-70
2022/03/12 00:08:05;;;;;;;13.85;5.43;;;-3.60;99.90;;;;;;5089093;28;20180;-70
2022/03/12 00:10:34;;;;;;;11.40;6.28;;;-3.30;99.90;;;;;;5091355;28;20284;-70
2022/03/12 00:13:01;;;;;;;10.02;5.20;;;-3.40;99.90;;;;;;5091582;28;20172;-70
2022/03/12 00:15:35;;;;;;;12.52;5.30;;;-3.50;99.90;;;;;;5091417;28;20207;-71
2022/03/12 00:18:02;;;;;;;13.30;4.78;;;-3.60;99.90;;;;;;5074082;28;20175;-71
2022/03/12 00:20:29;;;;;;;12.10;4.75;;;-3.80;99.90;;;;;;5072723;28;20244;-70
2022/03/12 00:22:57;;;;;;;14.10;5.22;;;-3.80;99.90;;;;;;5071283;28;20199;-71
2022/03/12 00:25:25;;;;;;;12.55;5.47;;;-3.70;99.90;;;;;;5072678;28;20160;-71
2022/03/12 00:27:51;;;;;;;13.70;5.28;;;-3.60;99.90;;;;;;5071310;28;20266;-71
2022/03/12 00:30:26;;;;;;;9.07;5.32;;;-3.60;99.90;;;;;;5071104;28;20228;-71
2022/03/12 00:32:53;;;;;;;10.75;5.32;;;-3.80;99.90;;;;;;5072608;28;20187;-71
2022/03/12 00:35:20;;;;;;;11.85;5.30;;;-3.90;99.90;;;;;;5072325;28;20710;-70
2022/03/12 00:37:47;;;;;;;11.85;5.10;;;-3.80;99.90;;;;;;5072350;28;20652;-70
2022/03/12 00:40:15;;;;;;;11.18;4.88;;;-3.70;99.90;;;;;;5072220;28;20196;-70
2022/03/12 00:42:42;;;;;;;6.82;4.10;;;-3.60;99.90;;;;;;5072169;28;20168;-69
2022/03/12 00:45:10;;;;;;;14.65;6.07;;;-3.60;99.90;;;;;;5071017;28;20202;-71
2022/03/12 00:47:36;;;;;;;5.53;3.90;;;-3.70;99.90;;;;;;5072406;28;20670;-69
2022/03/12 00:50:02;;;;;;;9.90;4.32;;;-3.90;99.90;;;;;;5072129;28;20258;-70
2022/03/12 00:52:28;;;;;;;8.10;5.28;;;-4.10;99.90;;;;;;5072082;28;20163;-70
2022/03/12 00:54:54;;;;;;;12.77;6.50;;;-4.20;99.90;;;;;;5072016;28;20234;-69
2022/03/12 00:57:20;;;;;;;9.00;4.70;;;-4.10;99.90;;;;;;5072095;28;20221;-71
2022/03/12 00:59:46;;;;;;;12.07;5.28;;;-4.10;99.90;;;;;;5070616;28;20175;-70
2022/03/12 01:02:16;;;;;;;9.93;6.05;;;-4.10;99.90;;;;;;5070563;28;20168;-70
2022/03/12 01:04:42;;;;;;;11.93;4.95;;;-4.10;99.90;;;;;;5072784;28;20184;-70
2022/03/12 01:07:13;;;;;;;12.52;4.43;;;-4.30;99.90;;;;;;5071739;28;20243;-69
2022/03/12 01:09:39;;;;;;;9.90;3.85;;;-4.40;99.90;;;;;;5071873;28;20179;-69
2022/03/12 01:12:07;;;;;;;9.68;5.20;;;-4.60;99.90;;;;;;5070396;28;20164;-70
2022/03/12 01:14:34;;;;;;;22.98;7.28;;;-4.70;99.90;;;;;;5070246;28;20197;-70
2022/03/12 01:17:00;;;;;;;9.68;4.50;;;-4.90;99.90;;;;;;5080273;28;20156;-69
2022/03/12 01:19:26;;;;;;;6.53;4.05;;;-5.00;99.90;;;;;;5091661;28;20157;-69
2022/03/12 01:21:53;;;;;;;6.93;3.55;;;-4.90;99.90;;;;;;5090127;28;20179;-69
2022/03/12 01:24:19;;;;;;;10.88;3.83;;;-4.90;99.90;;;;;;5090246;28;20179;-69
2022/03/12 01:26:45;;;;;;;9.32;4.88;;;-4.70;99.90;;;;;;5091556;28;20183;-69
2022/03/12 01:29:11;;;;;;;6.75;4.18;;;-4.50;99.90;;;;;;5091554;28;20159;-69
2022/03/12 01:31:38;;;;;;;7.93;4.63;;;-4.40;99.90;;;;;;5091394;28;20196;-69
2022/03/12 01:34:04;;;;;;;13.88;5.45;;;-4.30;99.90;;;;;;5089998;28;20245;-69
2022/03/12 01:36:31;;;;;;;10.52;4.43;;;-4.20;99.90;;;;;;5091360;28;20160;-69
2022/03/12 01:38:58;;;;;;;10.63;5.18;;;-4.10;99.90;;;;;;5091290;28;20178;-69
2022/03/12 01:41:30;;;;;;;11.80;4.13;;;-4.10;99.90;;;;;;5091086;28;20191;-70
2022/03/12 01:43:59;;;;;;;6.57;4.05;;;-4.20;99.90;;;;;;5089933;28;20530;-70
2022/03/12 01:46:38;;;;;;;13.02;4.18;;;-4.20;99.90;;;;;;5091160;28;20160;-70
2022/03/12 01:49:09;;;;;;;10.07;4.55;;;-4.40;99.90;;;;;;5091089;28;20183;-70
2022/03/12 01:51:37;;;;;;;8.20;4.65;;;-4.30;99.90;;;;;;5090956;28;20271;-70
2022/03/12 01:54:04;;;;;;;11.30;4.97;;;-4.20;99.90;;;;;;5090996;28;20184;-70
2022/03/12 01:56:30;;;;;;;10.43;4.03;;;-4.10;99.90;;;;;;5091014;28;20163;-70
2022/03/12 01:58:58;;;;;;;9.65;4.40;;;-4.20;99.90;;;;;;5091008;28;20160;-70
2022/03/12 02:01:28;;;;;;;11.32;5.22;;;-4.30;99.90;;;;;;5090827;28;20653;-69
2022/03/12 02:03:56;;;;;;;9.73;4.28;;;-4.20;99.90;;;;;;5088868;28;20201;-69
2022/03/12 02:06:24;;;;;;;8.05;5.15;;;-4.10;99.90;;;;;;5090556;28;20216;-70
2022/03/12 02:08:57;;;;;;;8.23;4.57;;;-4.20;99.90;;;;;;5090613;28;20191;-70
2022/03/12 02:11:30;;;;;;;11.27;4.25;;;-4.30;99.90;;;;;;5090549;28;20183;-70
2022/03/12 02:14:15;;;;;;;7.68;3.65;;;-4.20;99.90;;;;;;5090577;28;20226;-69
2022/03/12 02:16:53;;;;;;;15.32;4.00;;;-4.30;99.90;;;;;;5084757;28;20173;-69
2022/03/12 02:19:21;;;;;;;6.50;4.00;;;-4.30;99.90;;;;;;5070461;28;20188;-70
2022/03/12 02:22:01;;;;;;;15.32;4.93;;;-4.40;99.90;;;;;;5069117;28;20200;-69
2022/03/12 02:24:29;;;;;;;7.38;4.43;;;-4.40;99.90;;;;;;5070462;28;20165;-69
2022/03/12 02:26:57;;;;;;;9.68;4.93;;;-4.30;99.90;;;;;;5070271;28;20157;-69
2022/03/12 02:29:26;;;;;;;9.80;3.83;;;-4.30;99.90;;;;;;5070219;28;20187;-70
2022/03/12 02:31:56;;;;;;;8.73;4.80;;;-4.40;99.90;;;;;;5068413;28;20200;-70
2022/03/12 02:34:44;;;;;;;8.48;4.53;;;-4.50;99.90;;;;;;5068559;28;20204;-69
2022/03/12 02:37:36;;;;;;;8.18;4.30;;;-4.60;99.90;;;;;;5070093;28;20153;-69
2022/03/12 02:40:06;;;;;;;7.40;2.88;;;-4.50;99.90;;;;;;5069854;28;20228;-69
2022/03/12 02:42:37;;;;;;;3.60;2.35;;;-4.60;99.90;;;;;;5068711;28;20175;-69
2022/03/12 02:45:07;;;;;;;9.38;4.55;;;-4.60;99.90;;;;;;5068644;28;20201;-69
2022/03/12 02:47:33;;;;;;;8.02;3.47;;;-4.70;99.90;;;;;;5068531;28;20184;-69
2022/03/12 02:50:06;;;;;;;4.65;2.90;;;-4.70;99.90;;;;;;5069823;28;20207;-69
2022/03/12 02:52:39;;;;;;;7.05;4.03;;;-4.70;99.90;;;;;;5068515;28;20169;-69
2022/03/12 02:55:05;;;;;;;26.35;4.63;;;-4.70;99.90;;;;;;5069625;28;20188;-69
2022/03/12 02:57:31;;;;;;;4.97;2.92;;;-4.90;99.90;;;;;;5068432;28;20175;-69
2022/03/12 03:00:04;;;;;;;6.82;3.50;;;-4.70;99.90;;;;;;5069559;28;20192;-70
2022/03/12 03:02:40;;;;;;;7.00;3.60;;;-4.70;99.90;;;;;;5068358;28;20207;-70
2022/03/12 03:05:18;;;;;;;7.00;4.20;;;-4.70;99.90;;;;;;5083270;28;20195;-69
2022/03/12 03:07:49;;;;;;;4.95;3.15;;;-4.80;99.90;;;;;;5089432;28;20219;-69
2022/03/12 03:10:34;;;;;;;7.32;3.97;;;-4.80;99.90;;;;;;5089453;28;20301;-69
2022/03/12 03:13:19;;;;;;;4.40;3.55;;;-5.00;99.90;;;;;;5088180;28;20182;-69
2022/03/12 03:16:03;;;;;;;6.55;3.90;;;-5.00;99.90;;;;;;5089394;28;20218;-69
2022/03/12 03:18:32;;;;;;;11.35;3.80;;;-5.10;99.90;;;;;;5068004;28;20168;-69
2022/03/12 03:20:59;;;;;;;9.88;4.35;;;-5.20;99.90;;;;;;5067950;28;20207;-70
2022/03/12 03:23:27;;;;;;;7.20;4.57;;;-5.10;99.90;;;;;;5069251;28;20157;-69
2022/03/12 03:25:54;;;;;;;10.35;6.18;;;-5.20;99.90;;;;;;5067872;28;20173;-69
2022/03/12 03:28:20;;;;;;;7.90;5.65;;;-5.10;99.90;;;;;;5067906;28;20176;-68
2022/03/12 03:30:46;;;;;;;11.95;5.18;;;-5.10;99.90;;;;;;5067918;28;20196;-69
2022/03/12 03:33:15;;;;;;;11.55;5.63;;;-5.20;99.90;;;;;;5068972;28;20167;-70
2022/03/12 03:35:42;;;;;;;10.55;4.35;;;-5.10;99.90;;;;;;5067620;28;20196;-70
2022/03/12 03:38:09;;;;;;;14.70;4.03;;;-5.00;99.90;;;;;;5069340;28;20152;-69
2022/03/12 03:40:36;;;;;;;9.52;4.57;;;-5.10;99.90;;;;;;5068995;28;20185;-70
2022/03/12 03:43:06;;;;;;;8.07;4.45;;;-5.20;99.90;;;;;;5069003;28;20145;-69
2022/03/12 03:45:32;;;;;;;7.38;4.45;;;-5.30;99.90;;;;;;5068188;28;20698;-69
2022/03/12 03:47:58;;;;;;;7.85;5.13;;;-5.30;99.90;;;;;;5067803;28;20180;-69
2022/03/12 03:50:25;;;;;;;11.25;4.93;;;-5.40;99.90;;;;;;5068840;28;20196;-69
2022/03/12 03:53:03;;;;;;;12.75;4.20;;;-5.30;99.90;;;;;;5067556;28;20168;-69
2022/03/12 03:55:31;;;;;;;9.23;4.95;;;-5.20;99.90;;;;;;5068877;28;20190;-69
2022/03/12 03:57:58;;;;;;;7.35;2.92;;;-5.10;99.90;;;;;;5068825;28;20169;-69
2022/03/12 04:00:26;;;;;;;8.52;4.38;;;-5.00;99.90;;;;;;5068642;28;20189;-69
2022/03/12 04:03:02;;;;;;;7.22;4.18;;;-5.00;99.90;;;;;;5068770;28;20532;-69
2022/03/12 04:05:37;;;;;;;8.10;4.15;;;-5.00;99.90;;;;;;5079725;28;20175;-70
2022/03/12 04:08:06;;;;;;;6.25;4.25;;;-5.10;99.90;;;;;;5088874;28;20527;-69
2022/03/12 04:10:34;;;;;;;7.50;4.45;;;-5.20;99.90;;;;;;5075843;28;20205;-69
2022/03/12 04:13:00;;;;;;;8.77;4.65;;;-5.20;99.90;;;;;;5074556;28;20267;-69
2022/03/12 04:15:26;;;;;;;7.93;4.53;;;-5.20;99.90;;;;;;5088679;28;20184;-69
2022/03/12 04:17:54;;;;;;;7.25;4.38;;;-5.10;99.90;;;;;;5072197;28;20259;-69
2022/03/12 04:20:21;;;;;;;9.43;4.40;;;-5.00;99.90;;;;;;5068386;28;20189;-69
2022/03/12 04:22:50;;;;;;;16.70;5.20;;;-5.10;99.90;;;;;;5068576;28;20157;-69
2022/03/12 04:25:18;;;;;;;11.80;4.05;;;-5.10;99.90;;;;;;5067351;28;20180;-69
2022/03/12 04:27:44;;;;;;;8.13;4.53;;;-5.20;99.90;;;;;;5068611;28;20168;-69
2022/03/12 04:30:13;;;;;;;8.18;3.83;;;-5.20;99.90;;;;;;5068488;28;20196;-69
2022/03/12 04:32:41;;;;;;;12.40;3.55;;;-5.30;99.90;;;;;;5068722;28;20161;-70
2022/03/12 04:35:07;;;;;;;7.85;4.93;;;-5.30;99.90;;;;;;5068422;28;20193;-69
2022/03/12 04:37:35;;;;;;;7.00;3.45;;;-5.10;99.90;;;;;;5068504;28;20157;-69
2022/03/12 04:40:10;;;;;;;6.18;3.10;;;-5.00;99.90;;;;;;5068287;28;20220;-69
2022/03/12 04:42:44;;;;;;;6.10;3.45;;;-5.00;99.90;;;;;;5068678;28;20184;-69
2022/03/12 04:45:16;;;;;;;5.00;3.75;;;-5.00;99.90;;;;;;5068387;28;20176;-69
2022/03/12 04:47:44;;;;;;;8.57;3.72;;;-5.10;99.90;;;;;;5068373;28;20159;-69
2022/03/12 04:50:12;;;;;;;7.43;4.15;;;-5.20;99.90;;;;;;5068329;28;20265;-69
2022/03/12 04:52:50;;;;;;;9.23;4.38;;;-5.40;99.90;;;;;;5068251;28;20165;-70
2022/03/12 04:55:20;;;;;;;7.22;4.13;;;-5.50;99.90;;;;;;5067559;28;20196;-69
2022/03/12 04:57:46;;;;;;;3.95;3.15;;;-5.80;99.90;;;;;;5071815;28;20250;-69
2022/03/12 05:00:25;;;;;;;12.32;4.45;;;-5.50;99.90;;;;;;5071822;28;20193;-69
2022/03/12 05:03:13;;;;;;;8.70;3.77;;;-5.40;99.90;;;;;;5071913;28;20153;-69
2022/03/12 05:05:44;;;;;;;5.00;3.28;;;-5.30;99.90;;;;;;5078871;28;20641;-68
2022/03/12 05:08:13;;;;;;;5.15;2.65;;;-5.20;99.90;;;;;;5091838;28;20165;-69
2022/03/12 05:10:40;;;;;;;5.15;3.33;;;-5.30;99.90;;;;;;5091787;28;20196;-69
2022/03/12 05:13:06;;;;;;;7.88;3.75;;;-5.30;99.90;;;;;;5090410;28;20207;-69
2022/03/12 05:15:38;;;;;;;6.60;3.47;;;-5.40;99.90;;;;;;5091609;28;20198;-69
2022/03/12 05:18:07;;;;;;;10.77;4.30;;;-5.30;99.90;;;;;;5073122;28;20236;-69
2022/03/12 05:20:35;;;;;;;5.18;3.40;;;-5.30;99.90;;;;;;5071447;28;20196;-69
2022/03/12 05:23:02;;;;;;;6.63;4.28;;;-5.20;99.90;;;;;;5070128;28;20173;-69
2022/03/12 05:25:30;;;;;;;6.38;3.15;;;-5.20;99.90;;;;;;5071402;28;20165;-69
2022/03/12 05:27:56;;;;;;;6.70;4.07;;;-5.30;99.90;;;;;;5071377;28;20187;-69
2022/03/12 05:30:23;;;;;;;6.32;4.30;;;-5.30;99.90;;;;;;5069905;28;20192;-69
2022/03/12 05:32:50;;;;;;;9.20;3.13;;;-5.30;99.90;;;;;;5071334;28;20250;-69
2022/03/12 05:35:17;;;;;;;8.07;4.35;;;-5.30;99.90;;;;;;5071134;28;20192;-69
2022/03/12 05:37:52;;;;;;;8.25;4.07;;;-5.30;99.90;;;;;;5069864;28;20175;-69
2022/03/12 05:40:25;;;;;;;8.98;4.07;;;-5.20;99.90;;;;;;5071114;28;20199;-68
2022/03/12 05:42:53;;;;;;;8.52;4.05;;;-5.20;99.90;;;;;;5071119;28;20157;-70
2022/03/12 05:45:19;;;;;;;5.38;3.95;;;-5.20;99.90;;;;;;5071028;28;20159;-69
2022/03/12 05:47:47;;;;;;;9.13;4.45;;;-5.20;99.90;;;;;;5071030;28;20153;-69
2022/03/12 05:50:13;;;;;;;9.15;4.38;;;-5.30;99.90;;;;;;5070975;28;20215;-69
2022/03/12 05:52:45;;;;;;;6.70;3.92;;;-5.20;99.90;;;;;;5071074;28;20184;-69
2022/03/12 05:55:11;;;;;;;7.28;3.00;;;-5.10;99.90;;;;;;5070794;28;20656;-70
2022/03/12 05:57:38;;;;;;;8.73;3.88;;;-5.10;99.90;;;;;;5070792;28;20153;-70
2022/03/12 06:00:10;;;;;;;7.90;3.45;;;-5.00;99.90;;;;;;5069523;28;20223;-69
2022/03/12 06:02:36;;;;;;;5.88;3.63;;;-4.80;99.90;;;;;;5070789;28;20171;-69
2022/03/12 06:05:04;;;;;;;8.95;3.60;;;-4.70;99.90;;;;;;5074027;28;20182;-69
2022/03/12 06:07:31;;;;;;;4.93;3.35;;;-4.70;99.90;;;;;;5089454;28;20215;-69
2022/03/12 06:09:57;;;;;;;5.30;3.53;;;-4.70;99.90;;;;;;5089321;28;20199;-69
2022/03/12 06:12:26;;;;;;;7.75;2.70;;;-4.70;99.90;;;;;;5090395;28;20156;-70
2022/03/12 06:14:56;;;;;;;9.98;3.67;;;-4.70;99.90;;;;;;5090344;28;20207;-69
2022/03/12 06:17:26;;;;;;;5.63;3.58;;;-4.70;99.90;;;;;;5079379;28;20161;-70
2022/03/12 06:19:53;;;;;;;6.53;3.17;;;-4.60;99.90;;;;;;5069263;28;20188;-69
2022/03/12 06:22:19;;;;;;;5.03;2.83;;;-4.40;99.90;;;;;;5070484;28;20187;-70
2022/03/12 06:24:46;;;;;;;5.90;2.45;;;-4.30;99.90;;;;;;5070387;28;20165;-69
2022/03/12 06:27:13;;;;;;;4.50;2.90;;;-4.10;99.90;;;;;;5070271;28;20161;-69
2022/03/12 06:29:39;;;;;;;5.55;3.45;;;-4.00;99.90;;;;;;5070243;28;20169;-70
2022/03/12 06:32:07;;;;;;;6.05;2.53;;;-3.90;99.90;;;;;;5070321;28;20521;-70
2022/03/12 06:34:35;;;;;;;7.05;3.65;;;-3.70;99.90;;;;;;5068699;28;20197;-70
2022/03/12 06:37:02;;;;;;;6.45;3.20;;;-3.70;99.90;;;;;;5068822;28;20169;-69
2022/03/12 06:39:28;;;;;;;6.13;2.70;;;-3.60;99.90;;;;;;5068727;28;20172;-69
2022/03/12 06:41:55;;;;;;;5.55;2.90;;;-3.60;99.90;;;;;;5069800;28;20283;-69
2022/03/12 06:44:22;;;;;;;6.43;3.35;;;-3.50;99.90;;;;;;5069897;28;20244;-69
2022/03/12 06:46:50;;;;;;;12.07;4.80;;;-3.40;99.90;;;;;;5069793;28;20157;-70
2022/03/12 06:49:16;;;;;;;8.77;3.90;;;-3.30;99.90;;;;;;5069903;28;20494;-70
2022/03/12 06:51:42;;;;;;;6.22;4.50;;;-3.00;99.90;;;;;;5068376;28;20199;-70
2022/03/12 06:54:08;;;;;;;9.52;4.18;;;-1.90;99.90;;;;;;5069514;28;20175;-71
2022/03/12 06:56:35;;;;;;;11.57;3.92;;;-1.30;99.90;;;;;;5069698;28;20157;-69
2022/03/12 06:59:01;;;;;;;8.27;3.92;;;-0.80;99.90;;;;;;5069630;28;20153;-70
2022/03/12 07:01:27;;;;;;;10.20;4.65;;;-0.60;99.90;;;;;;5069162;28;20241;-70
2022/03/12 07:03:53;;;;;;;11.85;3.97;;;-1.10;99.90;;;;;;5074870;28;20183;-69
2022/03/12 07:06:19;;;;;;;11.48;4.88;;;-1.20;99.90;;;;;;5087120;28;20216;-69
2022/03/12 07:08:45;;;;;;;7.05;3.45;;;-1.30;99.90;;;;;;5088089;28;20176;-71
2022/03/12 07:11:11;;;;;;;6.93;4.00;;;-1.50;99.90;;;;;;5089235;28;20208;-68
2022/03/12 07:13:37;;;;;;;4.95;3.05;;;-1.80;99.90;;;;;;5069393;28;20165;-67
2022/03/12 07:16:04;;;;;;;9.80;4.35;;;-1.50;99.90;;;;;;5069100;28;20207;-68
2022/03/12 07:18:30;;;;;;;7.68;4.55;;;-1.30;99.90;;;;;;5067868;28;20194;-68
2022/03/12 07:20:56;;;;;;;9.45;4.63;;;-1.20;99.90;;;;;;5068732;28;20199;-68
2022/03/12 07:23:22;;;;;;;8.55;4.47;;;-0.80;99.90;;;;;;5069267;28;20156;-68
2022/03/12 07:25:48;;;;;;;6.45;4.00;;;-0.70;99.90;;;;;;5067818;28;20176;-69
2022/03/12 07:28:17;;;;;;;7.18;4.68;;;-0.70;99.90;;;;;;5068938;28;20165;-69
2022/03/12 07:30:43;;;;;;;7.55;4.13;;;-0.70;99.90;;;;;;5069188;28;20216;-69
2022/03/12 07:33:10;;;;;;;7.63;4.07;;;-0.70;99.90;;;;;;5069138;28;20507;-71
2022/03/12 07:35:37;;;;;;;12.13;4.53;;;-0.60;99.50;;;;;;5067507;28;20207;-71
2022/03/12 07:38:03;;;;;;;7.63;4.03;;;-0.60;98.70;;;;;;5067570;28;20165;-71
2022/03/12 07:40:29;;;;;;;8.52;4.28;;;-0.20;98.00;;;;;;5068737;28;20208;-70
2022/03/12 07:42:55;;;;;;;7.40;3.95;;;0.30;97.00;;;;;;5068838;28;20198;-70
2022/03/12 07:45:21;;;;;;;8.32;4.43;;;0.70;96.30;;;;;;5068844;28;20516;-70
2022/03/12 07:47:49;;;;;;;9.27;4.25;;;0.80;95.80;;;;;;5068844;28;20181;-70
2022/03/12 07:50:15;;;;;;;9.70;4.57;;;1.40;94.00;;;;;;5068698;28;20192;-70
2022/03/12 07:52:42;;;;;;;8.02;3.97;;;2.80;93.60;;;;;;5068742;28;20161;-70
2022/03/12 07:55:11;;;;;;;8.68;4.57;;;4.20;90.10;;;;;;5068557;28;20215;-70
2022/03/12 07:57:38;;;;;;;8.80;4.60;;;5.50;86.90;;;;;;5068940;28;20184;-71
2022/03/12 08:00:06;;;;;;;6.32;4.32;;;6.40;85.60;;;;;;5068739;28;20157;-70
2022/03/12 08:02:32;;;;;;;8.15;4.93;;;7.80;80.70;;;;;;5068407;28;20256;-70
2022/03/12 08:04:58;;;;;;;12.75;5.93;;;8.80;80.10;;;;;;5068490;28;20187;-70
2022/03/12 08:07:25;;;;;;;11.20;5.45;;;9.20;79.10;;;;;;5068419;28;20227;-70
2022/03/12 08:09:56;;;;;;;8.38;5.22;;;8.90;79.20;;;;;;5068644;28;20253;-70
2022/03/12 08:12:24;;;;;;;7.13;4.88;;;9.30;78.20;;;;;;5067318;28;20191;-69
2022/03/12 08:14:51;;;;;;;8.35;5.55;;;9.80;76.60;;;;;;5068447;28;20176;-69
2022/03/12 08:17:19;;;;;;;9.57;5.20;;;10.70;74.20;;;;;;5068627;28;20153;-69
2022/03/12 08:19:46;;;;;;;13.23;5.70;;;10.70;74.20;;;;;;5068703;28;20173;-69
2022/03/12 08:22:13;;;;;;;8.60;5.00;;;10.60;74.30;;;;;;5068736;28;20192;-69
2022/03/12 08:24:39;;;;;;;7.93;5.10;;;10.20;75.40;;;;;;5077229;28;20172;-69
2022/03/12 08:27:07;;;;;;;8.75;5.15;;;10.50;74.20;;;;;;5088762;28;20172;-69
2022/03/12 08:29:33;;;;;;;7.45;5.00;;;10.30;75.90;;;;;;5088649;28;20152;-69
2022/03/12 08:31:59;;;;;;;7.90;4.68;;;10.40;74.00;;;;;;5091886;28;20199;-70
2022/03/12 08:34:26;;;;;;;8.68;5.15;;;10.80;74.20;;;;;;5092238;28;20190;-70
2022/03/12 08:36:52;;;;;;;9.07;4.55;;;12.30;74.60;;;;;;5092319;28;20202;-69
2022/03/12 08:39:18;;;;;;;9.98;5.65;;;12.40;71.50;;;;;;5092285;28;20175;-69
2022/03/12 08:41:45;;;;;;;10.15;6.05;;;12.30;71.30;;;;;;5092238;28;20187;-69
2022/03/12 08:44:11;;;;;;;9.70;6.05;;;12.10;71.90;;;;;;5091930;28;20153;-70
2022/03/12 08:46:38;;;;;;;9.82;6.13;;;10.80;74.30;;;;;;5092152;28;20152;-69
2022/03/12 08:49:05;;;;;;;8.90;5.47;;;10.60;74.30;;;;;;5091931;28;20156;-68
2022/03/12 08:51:31;;;;;;;13.48;6.15;;;11.40;73.90;;;;;;5079967;28;20226;-69
2022/03/12 08:53:57;;;;;;;8.45;5.75;;;11.80;73.60;;;;;;5071777;28;20156;-70
2022/03/12 08:56:23;;;;;;;10.20;6.20;;;12.70;73.50;;;;;;5070239;28;20165;-69
2022/03/12 08:58:49;;;;;;;9.82;6.00;;;12.30;72.10;;;;;;5088314;28;20168;-69
2022/03/12 09:01:16;;;;;;;8.80;5.60;;;13.40;72.90;;;;;;5090569;28;20171;-69
2022/03/12 09:03:42;;;;;;;8.80;6.03;;;13.70;70.60;;;;;;5089140;28;20171;-70
2022/03/12 09:06:08;;;;;;;8.65;5.15;;;14.50;71.30;;;;;;5096673;28;20222;-70
2022/03/12 09:08:34;;;;;;;12.27;6.43;;;12.70;69.50;;;;;;5103528;28;20203;-69
2022/03/12 09:11:01;;;;;;;9.40;5.80;;;10.90;73.10;;;;;;5102490;28;20600;-70
2022/03/12 09:13:27;;;;;;;8.90;5.47;;;10.90;74.20;;;;;;5093273;28;20197;-68
2022/03/12 09:15:54;;;;;;;8.55;6.28;;;10.70;73.60;;;;;;5091113;28;20207;-68
2022/03/12 09:18:20;;;;;;;8.80;6.38;;;11.10;75.70;;;;;;5098643;28;20244;-68
2022/03/12 09:20:47;;;;;;;7.47;4.88;;;11.10;77.70;;;;;;5097754;28;20188;-69
2022/03/12 09:23:19;;;;;;;9.20;5.68;;;12.30;69.50;;;;;;5103439;28;20203;-69
2022/03/12 09:25:46;;;;;;;11.40;5.15;;;11.10;69.50;;;;;;5094514;28;20168;-69
2022/03/12 09:28:13;;;;;;;9.90;5.80;;;10.80;71.30;;;;;;5103771;28;20195;-69
2022/03/12 09:30:39;;;;;;;8.25;5.93;;;10.50;73.70;;;;;;5102430;28;20168;-70
2022/03/12 09:33:06;;;;;;;9.15;5.45;;;10.60;72.40;;;;;;5102417;28;20163;-70
2022/03/12 09:35:33;;;;;;;8.40;6.53;;;11.80;74.60;;;;;;5093535;28;20188;-70
2022/03/12 09:38:01;;;;;;;9.20;5.72;;;12.70;70.40;;;;;;5106164;28;20195;-70
2022/03/12 09:40:29;;;;;;;7.85;4.53;;;11.50;68.30;;;;;;5096591;28;20183;-69
2022/03/12 09:42:55;;;;;;;8.82;5.97;;;10.90;71.80;;;;;;5096730;28;20164;-69
2022/03/12 09:45:23;;;;;;;8.82;6.07;;;11.70;69.80;;;;;;5103839;28;20171;-70
2022/03/12 09:47:50;;;;;;;8.40;5.80;;;12.80;70.80;;;;;;5091770;28;20229;-70
2022/03/12 09:50:17;;;;;;;12.23;5.20;;;13.20;68.30;;;;;;5104936;28;20279;-69
2022/03/12 09:52:44;;;;;;;7.63;5.70;;;12.50;69.50;;;;;;5098619;28;20167;-69
2022/03/12 09:55:11;;;;;;;8.60;5.38;;;12.70;71.70;;;;;;5097388;28;20274;-69
2022/03/12 09:57:36;;;;;;;5.80;3.50;;;13.20;68.40;;;;;;5107384;28;20191;-69
2022/03/12 10:00:06;;;;;;;8.38;3.72;;;11.40;66.80;;;;;;5093996;28;20191;-69
2022/03/12 10:02:32;;;;;;;6.70;3.67;;;11.60;65.50;;;;;;5102126;28;20188;-69
2022/03/12 10:04:58;;;;;;;9.93;4.38;;;11.60;66.00;;;;;;5100073;28;20175;-69
2022/03/12 10:07:24;;;;;;;9.05;5.18;;;11.20;67.20;;;;;;5095424;28;20216;-69
2022/03/12 10:09:50;;;;;;;6.78;4.93;;;11.20;67.80;;;;;;5090490;28;20188;-69
2022/03/12 10:12:16;;;;;;;11.45;4.35;;;10.40;70.50;;;;;;5089196;28;20230;-69
2022/03/12 10:14:42;;;;;;;7.40;4.53;;;10.20;71.30;;;;;;5090418;28;20211;-70
2022/03/12 10:17:09;;;;;;;8.82;4.63;;;10.70;67.50;;;;;;5090389;28;20164;-69
2022/03/12 10:19:36;;;;;;;5.82;3.88;;;10.80;68.30;;;;;;5090258;28;20159;-69
2022/03/12 10:22:03;;;;;;;9.38;4.75;;;11.10;69.90;;;;;;5090157;28;20183;-69
2022/03/12 10:24:29;;;;;;;8.10;4.47;;;11.30;66.30;;;;;;5088217;28;20180;-70
2022/03/12 10:26:55;;;;;;;8.13;4.60;;;11.80;67.70;;;;;;5069100;28;20671;-69
2022/03/12 10:29:21;;;;;;;6.13;4.00;;;10.60;67.00;;;;;;5068921;28;20165;-68
2022/03/12 10:31:47;;;;;;;6.38;4.55;;;10.70;67.90;;;;;;5070114;28;20196;-69
2022/03/12 10:34:21;;;;;;;5.55;4.55;;;10.00;68.90;;;;;;5069833;28;20190;-69
2022/03/12 10:36:49;;;;;;;5.15;3.67;;;10.20;67.00;;;;;;5068691;28;20170;-70
2022/03/12 10:39:16;;;;;;;7.65;4.68;;;10.80;67.40;;;;;;5069914;28;20149;-69
2022/03/12 10:41:42;;;;;;;7.13;4.22;;;11.80;65.80;;;;;;5068501;28;20287;-68
2022/03/12 10:44:10;;;;;;;4.68;3.85;;;11.40;68.90;;;;;;5069819;28;20172;-69
2022/03/12 10:46:41;;;;;;;5.90;4.43;;;11.80;67.80;;;;;;5069842;28;20160;-69
2022/03/12 10:49:09;;;;;;;4.25;3.85;;;10.90;67.80;;;;;;5069645;28;20173;-69
2022/03/12 10:51:40;;;;;;;6.53;4.38;;;11.10;71.70;;;;;;5069599;28;20184;-70
2022/03/12 10:54:10;;;;;;;10.93;5.07;;;10.40;68.50;;;;;;5069238;28;20223;-71
2022/03/12 10:56:56;;;;;;;5.70;3.97;;;10.30;69.00;;;;;;5068398;28;20176;-71
2022/03/12 10:59:25;;;;;;;6.80;4.57;;;10.40;69.90;;;;;;5069442;28;20168;-70
2022/03/12 11:01:54;;;;;;;6.60;4.57;;;10.30;70.20;;;;;;5069360;28;20195;-70
2022/03/12 11:04:26;;;;;;;8.02;4.82;;;9.60;70.90;;;;;;5069477;28;20161;-70
2022/03/12 11:06:57;;;;;;;9.57;5.35;;;9.30;69.80;;;;;;5069277;28;20223;-71
2022/03/12 11:09:39;;;;;;;6.97;4.60;;;9.90;69.50;;;;;;5069279;28;20179;-70
2022/03/12 11:12:30;;;;;;;6.18;4.35;;;9.60;72.00;;;;;;5068117;28;20192;-70
2022/03/12 11:15:15;;;;;;;7.50;4.82;;;9.20;71.60;;;;;;5067966;28;20208;-70
2022/03/12 11:17:50;;;;;;;11.48;5.47;;;9.10;72.90;;;;;;5069492;28;20157;-70
2022/03/12 11:20:25;;;;;;;7.07;5.07;;;10.00;71.00;;;;;;5067865;28;20202;-71
2022/03/12 11:23:04;;;;;;;6.18;4.30;;;10.60;69.10;;;;;;5069148;28;20152;-69
2022/03/12 11:25:30;;;;;;;6.70;4.70;;;10.30;68.50;;;;;;5069244;28;20180;-70
2022/03/12 11:28:00;;;;;;;5.38;3.65;;;9.90;70.60;;;;;;5069055;28;20164;-71
2022/03/12 11:30:37;;;;;;;6.32;4.38;;;10.60;68.20;;;;;;5069164;28;20192;-70
2022/03/12 11:33:07;;;;;;;6.18;4.03;;;10.80;66.90;;;;;;5069051;28;20220;-70
2022/03/12 11:35:39;;;;;;;6.10;4.13;;;11.10;68.20;;;;;;5067661;28;20629;-71
2022/03/12 11:38:20;;;;;;;7.88;4.45;;;11.80;66.60;;;;;;5067571;28;20597;-70
2022/03/12 11:41:08;;;;;;;5.65;3.88;;;12.30;63.30;;;;;;5068884;28;20188;-70
2022/03/12 11:43:40;;;;;;;5.63;3.72;;;12.30;66.00;;;;;;5068937;28;20156;-69
2022/03/12 11:46:08;;;;;;;6.78;4.68;;;11.60;64.80;;;;;;5067562;28;20172;-70
2022/03/12 11:48:38;;;;;;;7.60;3.97;;;11.70;62.60;;;;;;5067178;28;20291;-70
2022/03/12 11:51:25;;;;;;;4.85;3.50;;;12.20;64.50;;;;;;5076072;28;20196;-70
2022/03/12 11:53:53;;;;;;;9.77;5.15;;;13.20;62.30;;;;;;5083981;28;20164;-71
2022/03/12 11:56:20;;;;;;;6.97;4.18;;;12.40;61.50;;;;;;5085671;28;20196;-71
2022/03/12 11:58:47;;;;;;;5.30;3.78;;;12.10;62.40;;;;;;5069037;28;20157;-70
2022/03/12 12:01:21;;;;;;;5.63;3.65;;;12.70;62.80;;;;;;5076212;28;20188;-71
2022/03/12 12:03:48;;;;;;;5.90;3.75;;;12.50;60.60;;;;;;5088552;28;20148;-70
2022/03/12 12:06:14;;;;;;;6.88;4.30;;;11.60;59.50;;;;;;5077658;28;20226;-71
2022/03/12 12:08:41;;;;;;;4.70;3.30;;;11.70;61.60;;;;;;5071344;28;20180;-70
2022/03/12 12:11:07;;;;;;;4.60;3.55;;;11.80;62.00;;;;;;5072642;28;20192;-70
2022/03/12 12:13:33;;;;;;;4.43;3.03;;;12.40;58.90;;;;;;5072649;28;20164;-71
2022/03/12 12:16:04;;;;;;;5.65;2.80;;;12.00;57.60;;;;;;5072491;28;20199;-70
2022/03/12 12:18:30;;;;;;;5.55;3.42;;;12.00;56.80;;;;;;5072690;28;20167;-70
2022/03/12 12:20:56;;;;;;;4.65;3.00;;;11.60;60.10;;;;;;5071238;28;20283;-69
2022/03/12 12:23:22;;;;;;;7.68;2.92;;;11.30;59.30;;;;;;5085600;28;20203;-69
2022/03/12 12:25:48;;;;;;;5.00;3.83;;;11.40;59.30;;;;;;5092465;28;20175;-70
2022/03/12 12:28:22;;;;;;;5.85;3.00;;;11.40;62.30;;;;;;5092469;28;20186;-70
2022/03/12 12:30:53;;;;;;;4.43;2.85;;;11.90;60.60;;;;;;5091244;28;20172;-70
2022/03/12 12:33:27;;;;;;;5.97;3.40;;;11.60;58.10;;;;;;5090929;28;20191;-69
2022/03/12 12:36:10;;;;;;;5.72;3.35;;;9.80;60.20;;;;;;5092278;28;20188;-69
2022/03/12 12:38:39;;;;;;;4.75;3.10;;;8.70;63.80;;;;;;5092192;28;20156;-69
2022/03/12 12:41:06;;;;;;;4.60;2.78;;;8.10;66.20;;;;;;5092229;28;20148;-70
2022/03/12 12:43:39;;;;;;;5.30;2.95;;;7.30;66.20;;;;;;5092174;28;20183;-69
2022/03/12 12:46:09;;;;;;;4.65;2.55;;;7.00;70.00;;;;;;5092210;28;20167;-68
2022/03/12 12:48:42;;;;;;;3.95;2.67;;;7.10;66.90;;;;;;5091903;28;20202;-69
2022/03/12 12:51:22;;;;;;;2.90;2.47;;;7.30;67.50;;;;;;5090660;28;20172;-70
2022/03/12 12:53:50;;;;;;;6.78;2.70;;;7.50;67.20;;;;;;5091842;28;20207;-68